Time;durP1;ratioP1;P1;durP2;ratioP2;P2;SDS_P1;SDS_P2;PMS_P1;PMS_P2;Temp;Humidity;BMP_temperature;BMP_pressure;BME280_temperature;BME280_humidity;BME280_pressure;Samples;Min_cycle;Max_cycle;Signal;HPM_P1;HPM_P2
2023/12/31 00:02:07;;;;;;;;;;;19.40;46.00;;;;;;5094435;28;19942;-58
2023/12/31 00:04:36;;;;;;;;;;;19.40;46.00;;;;;;5088388;28;19927;-58
2023/12/31 00:07:04;;;;;;;;;;;19.40;46.00;;;;;;5074386;28;19920;-57
2023/12/31 00:09:31;;;;;;;;;;;19.40;46.00;;;;;;5092628;28;19950;-58
2023/12/31 00:12:02;;;;;;;;;;;19.40;46.00;;;;;;5073899;28;19927;-57
2023/12/31 00:14:28;;;;;;;;;;;19.40;46.00;;;;;;5092492;28;19924;-58
2023/12/31 00:16:55;;;;;;;;;;;19.40;46.00;;;;;;5094826;28;19920;-58
2023/12/31 00:19:23;;;;;;;;;;;19.40;46.00;;;;;;5058040;28;19920;-57
2023/12/31 00:21:51;;;;;;;;;;;19.40;46.00;;;;;;5073347;28;19969;-58
2023/12/31 00:24:19;;;;;;;;;;;19.40;46.00;;;;;;5092373;28;19920;-58
2023/12/31 00:26:46;;;;;;;;;;;19.40;46.00;;;;;;5090954;28;19969;-58
2023/12/31 00:29:13;;;;;;;;;;;19.40;46.00;;;;;;5079149;28;19920;-58
2023/12/31 00:31:39;;;;;;;;;;;19.40;46.10;;;;;;5090778;28;19924;-58
2023/12/31 00:34:08;;;;;;;;;;;19.40;46.00;;;;;;5076421;28;19970;-58
2023/12/31 00:36:35;;;;;;;;;;;19.40;46.10;;;;;;5077315;28;19931;-58
2023/12/31 00:39:02;;;;;;;;;;;19.40;46.10;;;;;;5091869;28;19935;-58
2023/12/31 00:41:30;;;;;;;;;;;19.40;46.10;;;;;;5092482;28;20371;-59
2023/12/31 00:43:57;;;;;;;;;;;19.40;46.10;;;;;;5084677;28;20392;-58
2023/12/31 00:46:24;;;;;;;;;;;19.40;46.10;;;;;;5093184;28;19920;-58
2023/12/31 00:48:51;;;;;;;;;;;19.40;46.10;;;;;;5095323;28;19920;-58
2023/12/31 00:51:17;;;;;;;;;;;19.40;46.10;;;;;;5100329;28;19927;-58
2023/12/31 00:53:44;;;;;;;;;;;19.40;46.10;;;;;;5093740;28;19973;-58
2023/12/31 00:56:11;;;;;;;;;;;19.40;46.10;;;;;;5092085;28;19924;-59
2023/12/31 00:58:39;;;;;;;;;;;19.40;46.10;;;;;;5098177;28;19920;-59
2023/12/31 01:01:05;;;;;;;;;;;19.40;46.00;;;;;;5092762;28;19981;-58
2023/12/31 01:03:33;;;;;;;;;;;19.40;46.10;;;;;;5108123;28;19920;-58
2023/12/31 01:06:04;;;;;;;;;;;19.40;46.10;;;;;;5099871;28;19926;-58
2023/12/31 01:08:31;;;;;;;;;;;19.40;46.10;;;;;;5107447;28;19920;-58
2023/12/31 01:10:58;;;;;;;;;;;19.40;46.10;;;;;;5104094;28;19949;-58
2023/12/31 01:13:24;;;;;;;;;;;19.40;46.10;;;;;;5104082;28;19919;-58
2023/12/31 01:15:52;;;;;;;;;;;19.30;46.00;;;;;;5109181;28;19973;-58
2023/12/31 01:18:20;;;;;;;;;;;19.40;46.10;;;;;;5113651;28;19942;-58
2023/12/31 01:20:46;;;;;;;;;;;19.40;46.10;;;;;;5113422;28;19923;-58
2023/12/31 01:23:13;;;;;;;;;;;19.40;46.10;;;;;;5105395;28;19922;-58
2023/12/31 01:25:40;;;;;;;;;;;19.40;46.10;;;;;;5099594;28;19965;-58
2023/12/31 01:28:07;;;;;;;;;;;19.40;46.10;;;;;;5110813;28;19981;-58
2023/12/31 01:30:33;;;;;;;;;;;19.40;46.60;;;;;;5110552;28;19923;-58
2023/12/31 01:33:02;;;;;;;;;;;19.40;46.00;;;;;;5112984;28;20299;-58
2023/12/31 01:35:28;;;;;;;;;;;19.40;46.00;;;;;;5112875;28;19920;-58
2023/12/31 01:37:55;;;;;;;;;;;19.40;46.00;;;;;;5099779;28;19920;-58
2023/12/31 01:40:22;;;;;;;;;;;19.40;46.00;;;;;;5090820;28;19970;-58
2023/12/31 01:42:49;;;;;;;;;;;19.40;46.00;;;;;;5099793;28;19924;-57
2023/12/31 01:45:16;;;;;;;;;;;19.30;45.90;;;;;;5109921;28;20311;-58
2023/12/31 01:47:42;;;;;;;;;;;19.40;46.00;;;;;;5097348;28;19920;-58
2023/12/31 01:50:11;;;;;;;;;;;19.40;46.00;;;;;;5097497;28;19928;-58
2023/12/31 01:52:37;;;;;;;;;;;19.40;46.00;;;;;;5098793;28;19924;-58
2023/12/31 01:55:05;;;;;;;;;;;19.40;46.00;;;;;;5080869;28;19974;-58
2023/12/31 01:57:33;;;;;;;;;;;19.40;46.00;;;;;;5081388;28;20295;-57
2023/12/31 02:00:00;;;;;;;;;;;19.40;46.60;;;;;;5069441;28;19920;-57
2023/12/31 02:02:27;;;;;;;;;;;19.40;46.00;;;;;;5093958;28;19919;-58
2023/12/31 02:04:53;;;;;;;;;;;19.40;46.00;;;;;;5100591;28;19941;-58
2023/12/31 02:07:21;;;;;;;;;;;19.30;45.90;;;;;;5095772;28;19920;-57
2023/12/31 02:09:48;;;;;;;;;;;19.40;46.00;;;;;;5107052;28;20041;-57
2023/12/31 02:12:15;;;;;;;;;;;19.40;46.00;;;;;;5080326;28;19920;-57
2023/12/31 02:14:42;;;;;;;;;;;19.40;46.00;;;;;;5094206;28;19920;-57
2023/12/31 02:17:08;;;;;;;;;;;19.40;46.00;;;;;;5097558;28;20284;-58
2023/12/31 02:19:35;;;;;;;;;;;19.40;46.00;;;;;;5109870;28;19920;-58
2023/12/31 02:22:02;;;;;;;;;;;19.30;45.90;;;;;;5086641;28;19919;-58
2023/12/31 02:24:31;;;;;;;;;;;19.40;46.00;;;;;;5069665;28;19928;-57
2023/12/31 02:26:59;;;;;;;;;;;19.40;46.00;;;;;;5098290;28;19945;-57
2023/12/31 02:29:26;;;;;;;;;;;19.40;45.90;;;;;;5103530;28;19920;-58
2023/12/31 02:31:52;;;;;;;;;;;19.40;46.00;;;;;;5079682;28;19920;-58
2023/12/31 02:34:19;;;;;;;;;;;19.40;46.00;;;;;;5076669;28;19920;-57
2023/12/31 02:36:46;;;;;;;;;;;19.40;46.00;;;;;;5092378;28;19919;-56
2023/12/31 02:39:13;;;;;;;;;;;19.40;46.00;;;;;;5112479;28;19919;-57
2023/12/31 02:41:39;;;;;;;;;;;19.40;46.00;;;;;;5080153;28;19970;-57
2023/12/31 02:44:07;;;;;;;;;;;19.40;46.00;;;;;;5094324;28;19974;-57
2023/12/31 02:46:34;;;;;;;;;;;19.40;46.00;;;;;;5076161;28;19950;-57
2023/12/31 02:49:01;;;;;;;;;;;19.40;46.00;;;;;;5079062;28;20277;-57
2023/12/31 02:51:27;;;;;;;;;;;19.40;46.00;;;;;;5099206;28;20038;-57
2023/12/31 02:53:54;;;;;;;;;;;19.40;46.00;;;;;;5100275;28;19973;-57
2023/12/31 02:56:22;;;;;;;;;;;19.40;46.00;;;;;;5076214;28;19973;-57
2023/12/31 02:58:49;;;;;;;;;;;19.40;46.00;;;;;;5103288;28;19967;-58
2023/12/31 03:01:17;;;;;;;;;;;19.40;46.00;;;;;;5093985;28;19977;-58
2023/12/31 03:03:43;;;;;;;;;;;19.40;46.10;;;;;;5077139;28;19925;-58
2023/12/31 03:06:13;;;;;;;;;;;19.40;46.10;;;;;;5097448;28;19969;-58
2023/12/31 03:08:40;;;;;;;;;;;19.40;46.10;;;;;;5096109;28;19928;-58
2023/12/31 03:11:07;;;;;;;;;;;19.40;46.10;;;;;;5091529;28;19919;-57
2023/12/31 03:13:34;;;;;;;;;;;19.40;46.10;;;;;;5091437;28;19969;-58
2023/12/31 03:16:06;;;;;;;;;;;19.40;46.10;;;;;;5068481;28;19921;-58
2023/12/31 03:18:34;;;;;;;;;;;19.40;46.10;;;;;;5084038;28;19984;-58
2023/12/31 03:21:01;;;;;;;;;;;19.40;46.10;;;;;;5077543;28;19920;-57
2023/12/31 03:23:28;;;;;;;;;;;19.40;46.10;;;;;;5079209;28;19927;-57
2023/12/31 03:25:55;;;;;;;;;;;19.30;46.00;;;;;;5076494;28;19920;-58
2023/12/31 03:28:22;;;;;;;;;;;19.30;46.10;;;;;;5089762;28;19974;-58
2023/12/31 03:30:49;;;;;;;;;;;19.40;46.10;;;;;;5083822;28;20015;-58
2023/12/31 03:33:16;;;;;;;;;;;19.30;46.00;;;;;;5074266;28;19923;-58
2023/12/31 03:35:44;;;;;;;;;;;19.40;46.10;;;;;;5095391;28;19920;-58
2023/12/31 03:38:10;;;;;;;;;;;19.40;46.10;;;;;;5076260;28;19920;-58
2023/12/31 03:40:37;;;;;;;;;;;19.40;46.10;;;;;;5093795;28;19920;-58
2023/12/31 03:43:04;;;;;;;;;;;19.40;46.10;;;;;;5074821;28;19927;-58
2023/12/31 03:45:31;;;;;;;;;;;19.40;46.10;;;;;;5093968;28;19924;-58
2023/12/31 03:47:57;;;;;;;;;;;19.30;46.00;;;;;;5096277;28;19920;-58
2023/12/31 03:50:24;;;;;;;;;;;19.40;46.10;;;;;;5074393;28;19920;-58
2023/12/31 03:52:51;;;;;;;;;;;19.40;46.10;;;;;;5080467;28;19920;-57
2023/12/31 03:55:18;;;;;;;;;;;19.40;46.10;;;;;;5091693;28;20014;-58
2023/12/31 03:57:45;;;;;;;;;;;19.40;46.10;;;;;;5093051;28;19973;-58
2023/12/31 04:00:12;;;;;;;;;;;19.40;46.10;;;;;;5092284;28;19977;-58
2023/12/31 04:02:39;;;;;;;;;;;19.40;46.10;;;;;;5091114;28;19928;-58
2023/12/31 04:05:06;;;;;;;;;;;19.40;46.10;;;;;;5085473;28;19974;-58
2023/12/31 04:07:33;;;;;;;;;;;19.40;46.10;;;;;;5092963;28;19920;-58
2023/12/31 04:10:01;;;;;;;;;;;19.40;46.10;;;;;;5092216;28;19954;-58
2023/12/31 04:12:28;;;;;;;;;;;19.40;46.10;;;;;;5091078;28;19920;-57
2023/12/31 04:14:55;;;;;;;;;;;19.40;46.10;;;;;;5090321;28;19966;-59
2023/12/31 04:17:21;;;;;;;;;;;19.40;46.10;;;;;;5095579;28;19920;-58
2023/12/31 04:19:48;;;;;;;;;;;19.40;46.10;;;;;;5091797;28;19924;-58
2023/12/31 04:22:15;;;;;;;;;;;19.30;46.00;;;;;;5097894;28;20028;-58
2023/12/31 04:24:43;;;;;;;;;;;19.40;46.10;;;;;;5094880;28;19955;-57
2023/12/31 04:27:11;;;;;;;;;;;19.40;46.10;;;;;;5094102;28;19924;-58
2023/12/31 04:29:38;;;;;;;;;;;19.40;46.10;;;;;;5092196;28;20422;-58
2023/12/31 04:32:05;;;;;;;;;;;19.40;46.10;;;;;;5090713;28;19982;-58
2023/12/31 04:34:32;;;;;;;;;;;19.30;46.00;;;;;;5092460;28;19942;-58
2023/12/31 04:36:58;;;;;;;;;;;19.40;46.10;;;;;;5093621;28;19927;-58
2023/12/31 04:39:25;;;;;;;;;;;19.40;46.10;;;;;;5094406;28;19924;-57
2023/12/31 04:41:52;;;;;;;;;;;19.40;46.10;;;;;;5093924;28;19924;-58
2023/12/31 04:44:20;;;;;;;;;;;19.30;46.00;;;;;;5093026;28;20015;-58
2023/12/31 04:46:47;;;;;;;;;;;19.40;46.10;;;;;;5091294;28;20023;-58
2023/12/31 04:49:14;;;;;;;;;;;19.40;46.10;;;;;;5091486;28;19969;-58
2023/12/31 04:51:41;;;;;;;;;;;19.40;46.10;;;;;;5095767;28;19963;-58
2023/12/31 04:54:07;;;;;;;;;;;19.40;46.10;;;;;;5091382;28;19920;-58
2023/12/31 04:56:34;;;;;;;;;;;19.40;46.10;;;;;;5092437;28;19920;-58
2023/12/31 04:59:01;;;;;;;;;;;19.40;46.10;;;;;;5094152;28;19924;-57
2023/12/31 05:01:32;;;;;;;;;;;19.30;46.00;;;;;;5091004;28;19951;-59
2023/12/31 05:03:58;;;;;;;;;;;19.40;46.10;;;;;;5083980;28;19928;-58
2023/12/31 05:06:25;;;;;;;;;;;19.40;46.10;;;;;;5091089;28;19924;-58
2023/12/31 05:08:52;;;;;;;;;;;19.40;46.10;;;;;;5086618;28;19977;-58
2023/12/31 05:11:19;;;;;;;;;;;19.40;46.10;;;;;;5088792;28;19924;-58
2023/12/31 05:13:45;;;;;;;;;;;19.40;46.10;;;;;;5092066;28;19927;-58
2023/12/31 05:16:13;;;;;;;;;;;19.30;46.00;;;;;;5090352;28;19937;-58
2023/12/31 05:18:42;;;;;;;;;;;19.40;46.10;;;;;;5090242;28;20171;-58
2023/12/31 05:21:09;;;;;;;;;;;19.40;46.10;;;;;;5091283;28;19920;-58
2023/12/31 05:23:36;;;;;;;;;;;19.40;46.10;;;;;;5089674;28;19920;-58
2023/12/31 05:26:03;;;;;;;;;;;19.40;46.10;;;;;;5088685;28;19920;-58
2023/12/31 05:28:29;;;;;;;;;;;19.40;46.10;;;;;;5089785;28;19927;-58
2023/12/31 05:30:56;;;;;;;;;;;19.40;46.10;;;;;;5088120;28;19973;-58
2023/12/31 05:33:23;;;;;;;;;;;19.40;46.10;;;;;;5089428;28;19924;-58
2023/12/31 05:35:51;;;;;;;;;;;19.40;46.10;;;;;;5089634;28;19969;-58
2023/12/31 05:38:17;;;;;;;;;;;19.40;46.10;;;;;;5088168;28;19920;-58
2023/12/31 05:40:44;;;;;;;;;;;19.40;46.10;;;;;;5090569;28;19939;-58
2023/12/31 05:43:11;;;;;;;;;;;19.30;46.00;;;;;;5117880;28;19973;-58
2023/12/31 05:45:38;;;;;;;;;;;19.40;46.10;;;;;;5089404;28;19926;-58
2023/12/31 05:48:05;;;;;;;;;;;19.30;46.10;;;;;;5091125;28;19920;-58
2023/12/31 05:50:32;;;;;;;;;;;19.40;46.10;;;;;;5091444;28;19969;-58
2023/12/31 05:53:00;;;;;;;;;;;19.40;46.10;;;;;;5089165;28;19981;-58
2023/12/31 05:55:26;;;;;;;;;;;19.30;46.00;;;;;;5086317;28;19920;-58
2023/12/31 05:57:53;;;;;;;;;;;19.40;46.10;;;;;;5087899;28;19955;-59
2023/12/31 06:00:20;;;;;;;;;;;19.40;46.10;;;;;;5085766;28;19973;-58
2023/12/31 06:02:47;;;;;;;;;;;19.40;46.10;;;;;;5089935;28;20023;-58
2023/12/31 06:05:14;;;;;;;;;;;19.40;46.10;;;;;;5090436;28;19942;-58
2023/12/31 06:07:40;;;;;;;;;;;19.40;46.10;;;;;;5089116;28;19924;-58
2023/12/31 06:10:09;;;;;;;;;;;19.40;46.10;;;;;;5089263;28;20029;-58
2023/12/31 06:12:36;;;;;;;;;;;19.40;46.10;;;;;;5089121;28;19932;-58
2023/12/31 06:15:06;;;;;;;;;;;19.30;46.00;;;;;;5089391;28;19920;-58
2023/12/31 06:17:32;;;;;;;;;;;19.40;46.10;;;;;;5087685;28;19925;-58
2023/12/31 06:20:00;;;;;;;;;;;19.40;46.10;;;;;;5093051;28;19985;-58
2023/12/31 06:22:26;;;;;;;;;;;19.30;46.00;;;;;;5090798;28;19969;-58
2023/12/31 06:24:53;;;;;;;;;;;19.40;46.10;;;;;;5090404;28;19920;-58
2023/12/31 06:27:21;;;;;;;;;;;19.40;46.10;;;;;;5089934;28;19925;-58
2023/12/31 06:29:48;;;;;;;;;;;19.40;46.10;;;;;;5093175;28;19966;-58
2023/12/31 06:32:15;;;;;;;;;;;19.40;46.10;;;;;;5090790;28;19920;-58
2023/12/31 06:34:41;;;;;;;;;;;19.40;46.10;;;;;;5091973;28;19924;-58
2023/12/31 06:37:08;;;;;;;;;;;19.40;46.10;;;;;;5092597;28;19920;-58
2023/12/31 06:39:35;;;;;;;;;;;19.40;46.10;;;;;;5093666;28;19965;-58
2023/12/31 06:42:02;;;;;;;;;;;19.40;46.10;;;;;;5107384;28;19920;-58
2023/12/31 06:44:30;;;;;;;;;;;19.40;46.10;;;;;;5093930;28;19970;-58
2023/12/31 06:46:57;;;;;;;;;;;19.30;46.10;;;;;;5094426;28;19926;-58
2023/12/31 06:49:24;;;;;;;;;;;19.40;46.10;;;;;;5092456;28;19920;-58
2023/12/31 06:51:50;;;;;;;;;;;19.40;46.10;;;;;;5094376;28;19919;-58
2023/12/31 06:54:17;;;;;;;;;;;19.40;46.10;;;;;;5091260;28;19920;-58
2023/12/31 06:56:44;;;;;;;;;;;19.30;46.00;;;;;;5094524;28;20173;-58
2023/12/31 06:59:10;;;;;;;;;;;19.40;46.10;;;;;;5093692;28;19920;-57
2023/12/31 07:01:38;;;;;;;;;;;19.30;46.00;;;;;;5092141;28;20415;-58
2023/12/31 07:04:05;;;;;;;;;;;19.40;46.10;;;;;;5089205;28;19973;-58
2023/12/31 07:06:32;;;;;;;;;;;19.40;46.10;;;;;;5092916;28;19920;-58
2023/12/31 07:08:59;;;;;;;;;;;19.30;46.00;;;;;;5094470;28;19920;-58
2023/12/31 07:11:26;;;;;;;;;;;19.40;46.10;;;;;;5089393;28;19924;-58
2023/12/31 07:13:53;;;;;;;;;;;19.40;46.10;;;;;;5092389;28;19932;-58
2023/12/31 07:16:19;;;;;;;;;;;19.30;46.00;;;;;;5092209;28;19927;-58
2023/12/31 07:18:48;;;;;;;;;;;19.40;46.10;;;;;;5092150;28;19980;-58
2023/12/31 07:21:20;;;;;;;;;;;19.40;46.10;;;;;;5091673;28;20018;-58
2023/12/31 07:23:47;;;;;;;;;;;19.40;46.10;;;;;;5090667;28;20116;-58
2023/12/31 07:26:23;;;;;;;;;;;19.30;46.00;;;;;;5090808;28;19920;-58
2023/12/31 07:28:49;;;;;;;;;;;19.40;46.10;;;;;;5091432;28;20299;-58
2023/12/31 07:31:16;;;;;;;;;;;19.40;46.10;;;;;;5091163;28;19924;-58
2023/12/31 07:33:43;;;;;;;;;;;19.40;46.10;;;;;;5087332;28;19924;-58
2023/12/31 07:36:11;;;;;;;;;;;19.30;46.00;;;;;;5091749;28;19920;-58
2023/12/31 07:38:38;;;;;;;;;;;19.40;46.10;;;;;;5100542;28;19973;-58
2023/12/31 07:41:05;;;;;;;;;;;19.40;46.10;;;;;;5106084;28;20322;-58
2023/12/31 07:43:32;;;;;;;;;;;19.40;46.10;;;;;;5091023;28;20025;-58
2023/12/31 07:45:59;;;;;;;;;;;19.30;46.00;;;;;;5095339;28;19932;-58
2023/12/31 07:48:25;;;;;;;;;;;19.30;46.00;;;;;;5089516;28;19985;-58
2023/12/31 07:50:52;;;;;;;;;;;19.40;46.10;;;;;;5090533;28;19962;-58
2023/12/31 07:53:20;;;;;;;;;;;19.40;46.10;;;;;;5072576;28;20003;-57
2023/12/31 07:55:47;;;;;;;;;;;19.40;46.70;;;;;;5089787;28;19974;-58
2023/12/31 07:58:14;;;;;;;;;;;19.30;46.00;;;;;;5090736;28;19969;-58
2023/12/31 08:00:41;;;;;;;;;;;19.30;46.00;;;;;;5091871;28;19958;-58
2023/12/31 08:03:07;;;;;;;;;;;19.40;46.10;;;;;;5091413;28;19924;-58
2023/12/31 08:05:34;;;;;;;;;;;19.30;46.00;;;;;;5087009;28;20408;-59
2023/12/31 08:08:01;;;;;;;;;;;19.40;46.10;;;;;;5090185;28;19920;-58
2023/12/31 08:10:29;;;;;;;;;;;19.40;46.10;;;;;;5089724;28;19928;-58
2023/12/31 08:12:56;;;;;;;;;;;19.30;46.00;;;;;;5091474;28;19924;-58
2023/12/31 08:15:22;;;;;;;;;;;19.40;46.10;;;;;;5088079;28;19947;-58
2023/12/31 08:17:49;;;;;;;;;;;19.40;46.10;;;;;;5089241;28;19947;-58
2023/12/31 08:20:16;;;;;;;;;;;19.30;46.00;;;;;;5088045;28;19949;-58
2023/12/31 08:22:43;;;;;;;;;;;19.30;46.00;;;;;;5093226;28;20427;-58
2023/12/31 08:25:10;;;;;;;;;;;19.40;46.10;;;;;;5092676;28;19920;-59
2023/12/31 08:27:38;;;;;;;;;;;19.40;46.10;;;;;;5090353;28;19966;-58
2023/12/31 08:30:05;;;;;;;;;;;19.30;46.00;;;;;;5092843;28;19969;-58
2023/12/31 08:32:32;;;;;;;;;;;19.40;46.10;;;;;;5092131;28;19968;-58
2023/12/31 08:34:59;;;;;;;;;;;19.40;46.10;;;;;;5093072;28;19920;-58
2023/12/31 08:37:26;;;;;;;;;;;19.40;46.10;;;;;;5091155;28;20186;-58
2023/12/31 08:39:52;;;;;;;;;;;19.40;46.10;;;;;;5089126;28;19920;-58
2023/12/31 08:42:19;;;;;;;;;;;19.40;46.10;;;;;;5090649;28;19920;-58
2023/12/31 08:44:48;;;;;;;;;;;19.40;46.10;;;;;;5093248;28;20039;-59
2023/12/31 08:47:15;;;;;;;;;;;19.40;46.10;;;;;;5093285;28;19930;-58
2023/12/31 08:49:42;;;;;;;;;;;19.40;46.10;;;;;;5089841;28;19938;-58
2023/12/31 08:52:08;;;;;;;;;;;19.40;46.10;;;;;;5091353;28;19924;-58
2023/12/31 08:54:35;;;;;;;;;;;19.30;46.00;;;;;;5092340;28;19927;-59
2023/12/31 08:57:02;;;;;;;;;;;19.40;46.10;;;;;;5071563;28;20821;-58
2023/12/31 08:59:29;;;;;;;;;;;19.30;46.00;;;;;;5090204;28;19920;-58
2023/12/31 09:01:57;;;;;;;;;;;19.40;46.10;;;;;;5073414;28;19996;-59
2023/12/31 09:04:24;;;;;;;;;;;19.40;46.10;;;;;;5092733;28;19920;-59
2023/12/31 09:06:50;;;;;;;;;;;19.40;46.10;;;;;;5071376;28;19924;-59
2023/12/31 09:09:17;;;;;;;;;;;19.40;46.10;;;;;;5073730;28;19920;-58
2023/12/31 09:11:44;;;;;;;;;;;19.40;46.10;;;;;;5077109;28;19920;-58
2023/12/31 09:14:11;;;;;;;;;;;19.30;46.00;;;;;;5075416;28;20050;-58
2023/12/31 09:16:38;;;;;;;;;;;19.40;46.10;;;;;;5077723;28;19920;-58
2023/12/31 09:19:06;;;;;;;;;;;19.40;46.10;;;;;;5079374;28;19969;-58
2023/12/31 09:21:33;;;;;;;;;;;19.40;46.10;;;;;;5091710;28;19920;-58
2023/12/31 09:23:59;;;;;;;;;;;19.40;46.10;;;;;;5082086;28;19965;-58
2023/12/31 09:26:26;;;;;;;;;;;19.40;46.10;;;;;;5071491;28;20274;-59
2023/12/31 09:28:53;;;;;;;;;;;19.40;46.10;;;;;;5077289;28;19924;-58
2023/12/31 09:31:24;;;;;;;;;;;19.40;46.10;;;;;;5093505;28;20315;-58
2023/12/31 09:33:51;;;;;;;;;;;19.40;46.10;;;;;;5096336;28;19924;-58
2023/12/31 09:36:19;;;;;;;;;;;19.40;46.10;;;;;;5082223;28;19984;-58
2023/12/31 09:38:46;;;;;;;;;;;19.30;46.00;;;;;;5077866;28;19992;-58
2023/12/31 09:41:14;;;;;;;;;;;19.30;46.60;;;;;;5082380;28;19924;-59
2023/12/31 09:43:40;;;;;;;;;;;19.40;46.10;;;;;;5082805;28;19970;-59
2023/12/31 09:46:08;;;;;;;;;;;19.30;46.00;;;;;;5099906;28;19930;-58
2023/12/31 09:48:34;;;;;;;;;;;19.40;46.10;;;;;;5072396;28;19924;-58
2023/12/31 09:51:01;;;;;;;;;;;19.40;46.10;;;;;;5086548;28;19920;-58
2023/12/31 09:53:30;;;;;;;;;;;19.40;46.10;;;;;;5080079;28;19920;-58
2023/12/31 09:55:56;;;;;;;;;;;19.40;46.10;;;;;;5090857;28;19950;-58
2023/12/31 09:58:23;;;;;;;;;;;19.40;46.10;;;;;;5092294;28;19997;-58
2023/12/31 10:00:50;;;;;;;;;;;19.40;46.10;;;;;;5093225;28;19988;-58
2023/12/31 10:03:16;;;;;;;;;;;19.40;46.10;;;;;;5110136;28;19976;-58
2023/12/31 10:05:43;;;;;;;;;;;19.40;46.10;;;;;;5092974;28;19919;-59
2023/12/31 10:08:10;;;;;;;;;;;19.40;46.10;;;;;;5100772;28;19919;-58
2023/12/31 10:10:38;;;;;;;;;;;19.40;46.10;;;;;;5108917;28;19932;-58
2023/12/31 10:13:05;;;;;;;;;;;19.40;46.10;;;;;;5093643;28;19924;-59
2023/12/31 10:15:32;;;;;;;;;;;19.40;46.10;;;;;;5101646;28;19931;-58
2023/12/31 10:18:02;;;;;;;;;;;19.40;46.10;;;;;;5093593;28;20022;-59
2023/12/31 10:20:30;;;;;;;;;;;19.40;46.10;;;;;;5077599;28;19924;-58
2023/12/31 10:22:56;;;;;;;;;;;19.40;46.10;;;;;;5096433;28;19975;-58
2023/12/31 10:25:24;;;;;;;;;;;19.40;46.10;;;;;;5098774;28;20087;-59
2023/12/31 10:27:52;;;;;;;;;;;19.40;46.10;;;;;;5097474;28;19965;-58
2023/12/31 10:30:19;;;;;;;;;;;19.40;46.10;;;;;;5101292;28;19950;-58
2023/12/31 10:32:45;;;;;;;;;;;19.40;46.10;;;;;;5092859;28;19939;-58
2023/12/31 10:35:12;;;;;;;;;;;19.50;46.20;;;;;;5093804;28;20330;-58
2023/12/31 10:37:40;;;;;;;;;;;19.40;46.10;;;;;;5100971;28;19920;-58
2023/12/31 10:40:16;;;;;;;;;;;19.40;46.20;;;;;;5097671;28;19920;-58
2023/12/31 10:42:43;;;;;;;;;;;19.40;46.10;;;;;;5119134;27;19966;-59
2023/12/31 10:45:11;;;;;;;;;;;19.40;46.10;;;;;;5094560;28;19973;-58
2023/12/31 10:47:38;;;;;;;;;;;19.40;46.70;;;;;;5102564;28;19924;-59
2023/12/31 10:50:06;;;;;;;;;;;19.40;46.20;;;;;;5092313;28;19920;-53
2023/12/31 10:52:33;;;;;;;;;;;19.40;44.80;;;;;;5103982;28;19927;-59
2023/12/31 10:54:59;;;;;;;;;;;19.40;41.90;;;;;;5079567;28;19939;-58
2023/12/31 10:57:26;;;;;;;;;;;19.30;41.10;;;;;;5075056;28;19966;-58
2023/12/31 10:59:53;;;;;;;;;;;19.20;41.00;;;;;;5075111;28;19920;-58
2023/12/31 11:02:21;;;;;;;;;;;19.10;40.40;;;;;;5093297;28;19950;-59
2023/12/31 11:04:48;;;;;;;;;;;19.00;40.40;;;;;;5080396;28;19920;-57
2023/12/31 11:07:15;;;;;;;;;;;18.80;40.70;;;;;;5075959;28;19927;-58
2023/12/31 11:09:42;;;;;;;;;;;18.70;40.50;;;;;;5092724;28;20047;-58
2023/12/31 11:12:09;;;;;;;;;;;18.60;40.60;;;;;;5090014;28;19977;-58
2023/12/31 11:14:37;;;;;;;;;;;18.50;40.70;;;;;;5106082;28;19924;-58
2023/12/31 11:17:09;;;;;;;;;;;18.40;40.70;;;;;;5079240;28;19935;-58
2023/12/31 11:19:53;;;;;;;;;;;18.30;40.80;;;;;;5081006;28;20421;-54
2023/12/31 11:22:27;;;;;;;;;;;18.20;41.40;;;;;;5088844;28;19924;-54
2023/12/31 11:24:57;;;;;;;;;;;18.20;41.90;;;;;;5072715;28;19920;-50
2023/12/31 11:27:24;;;;;;;;;;;18.20;42.30;;;;;;5073228;28;20018;-53
2023/12/31 11:29:52;;;;;;;;;;;18.20;42.50;;;;;;5070387;28;19927;-56
2023/12/31 11:32:19;;;;;;;;;;;18.20;42.80;;;;;;5079159;28;19920;-51
2023/12/31 11:34:50;;;;;;;;;;;18.20;43.00;;;;;;5093854;28;20327;-53
2023/12/31 11:37:16;;;;;;;;;;;18.30;43.20;;;;;;5073457;28;19924;-50
2023/12/31 11:39:48;;;;;;;;;;;18.30;43.50;;;;;;5073854;28;19924;-51
2023/12/31 11:42:15;;;;;;;;;;;18.40;43.70;;;;;;5081366;28;19965;-55
2023/12/31 11:44:43;;;;;;;;;;;18.40;43.80;;;;;;5070304;28;19920;-48
2023/12/31 11:47:13;;;;;;;;;;;18.50;44.00;;;;;;5095706;28;19951;-51
2023/12/31 11:49:41;;;;;;;;;;;18.50;44.10;;;;;;5091876;28;20011;-50
2023/12/31 11:52:08;;;;;;;;;;;18.50;44.10;;;;;;5105206;28;19924;-53
2023/12/31 11:54:36;;;;;;;;;;;18.60;44.30;;;;;;5075376;28;19920;-55
2023/12/31 11:57:04;;;;;;;;;;;18.60;44.30;;;;;;5073603;28;19924;-55
2023/12/31 11:59:33;;;;;;;;;;;18.60;44.40;;;;;;5091133;28;20284;-52
2023/12/31 12:02:00;;;;;;;;;;;18.60;44.40;;;;;;5104530;28;19920;-56
2023/12/31 12:04:26;;;;;;;;;;;18.70;44.60;;;;;;5073811;28;19920;-53
2023/12/31 12:06:53;;;;;;;;;;;18.70;44.60;;;;;;5073941;28;19985;-54
2023/12/31 12:09:21;;;;;;;;;;;18.70;44.70;;;;;;5094813;28;19920;-53
2023/12/31 12:11:47;;;;;;;;;;;18.70;44.70;;;;;;5073290;28;19930;-49
2023/12/31 12:14:15;;;;;;;;;;;18.70;44.80;;;;;;5078448;28;19973;-52
2023/12/31 12:16:42;;;;;;;;;;;18.80;45.40;;;;;;5071711;28;19924;-54
2023/12/31 12:19:09;;;;;;;;;;;18.80;44.90;;;;;;5072994;28;19920;-55
2023/12/31 12:21:36;;;;;;;;;;;18.80;44.90;;;;;;5076667;28;19920;-54
2023/12/31 12:24:04;;;;;;;;;;;18.80;44.90;;;;;;5094361;28;19950;-51
2023/12/31 12:26:31;;;;;;;;;;;18.80;45.00;;;;;;5073758;28;19970;-54
2023/12/31 12:28:58;;;;;;;;;;;18.80;45.00;;;;;;5072822;28;19935;-58
2023/12/31 12:31:26;;;;;;;;;;;18.80;45.00;;;;;;5059408;28;19924;-50
2023/12/31 12:33:54;;;;;;;;;;;18.80;45.00;;;;;;5097609;28;19920;-57
2023/12/31 12:36:23;;;;;;;;;;;18.80;45.00;;;;;;5098116;28;19991;-54
2023/12/31 12:38:50;;;;;;;;;;;18.80;45.10;;;;;;5090541;28;19956;-56
2023/12/31 12:41:20;;;;;;;;;;;18.80;45.00;;;;;;5072823;28;19920;-54
2023/12/31 12:43:50;;;;;;;;;;;18.90;45.20;;;;;;5091496;28;19920;-56
2023/12/31 12:46:17;;;;;;;;;;;18.90;45.20;;;;;;5056678;28;19976;-56
2023/12/31 12:48:49;;;;;;;;;;;18.90;45.20;;;;;;5073184;28;20235;-53
2023/12/31 12:51:16;;;;;;;;;;;18.90;45.20;;;;;;5071497;28;19924;-50
2023/12/31 12:53:43;;;;;;;;;;;18.90;45.20;;;;;;5071912;28;19973;-53
2023/12/31 12:56:10;;;;;;;;;;;18.90;45.20;;;;;;5072595;28;19937;-57
2023/12/31 12:58:39;;;;;;;;;;;18.90;45.20;;;;;;5096648;28;20276;-51
2023/12/31 13:01:05;;;;;;;;;;;18.90;45.10;;;;;;5055738;28;20319;-55
2023/12/31 13:03:32;;;;;;;;;;;18.90;45.20;;;;;;5076878;28;19973;-51
2023/12/31 13:06:00;;;;;;;;;;;18.90;45.10;;;;;;5087353;28;20384;-58
2023/12/31 13:08:27;;;;;;;;;;;18.90;45.20;;;;;;5071926;28;19920;-53
2023/12/31 13:10:54;;;;;;;;;;;18.90;45.20;;;;;;5072768;28;19924;-53
2023/12/31 13:13:20;;;;;;;;;;;18.90;45.20;;;;;;5072672;28;19927;-53
2023/12/31 13:15:47;;;;;;;;;;;18.90;45.20;;;;;;5069446;28;19924;-53
2023/12/31 13:18:14;;;;;;;;;;;18.90;45.20;;;;;;5072650;28;19927;-55
2023/12/31 13:20:41;;;;;;;;;;;18.90;45.20;;;;;;5071525;28;19920;-56
2023/12/31 13:23:10;;;;;;;;;;;18.90;45.20;;;;;;5104557;28;20004;-52
2023/12/31 13:25:37;;;;;;;;;;;18.90;45.20;;;;;;5072181;28;19943;-53
2023/12/31 13:28:05;;;;;;;;;;;18.90;45.20;;;;;;5072097;28;19981;-53
2023/12/31 13:30:32;;;;;;;;;;;18.90;45.20;;;;;;5055298;28;19959;-59
2023/12/31 13:32:58;;;;;;;;;;;18.90;45.20;;;;;;5072725;28;19932;-55
2023/12/31 13:35:25;;;;;;;;;;;18.90;45.20;;;;;;5072686;28;20255;-52
2023/12/31 13:37:52;;;;;;;;;;;18.90;45.20;;;;;;5054977;28;19927;-57
2023/12/31 13:40:20;;;;;;;;;;;18.90;45.20;;;;;;5056415;28;19920;-53
2023/12/31 13:42:47;;;;;;;;;;;18.90;45.20;;;;;;5075559;28;19930;-51
2023/12/31 13:45:14;;;;;;;;;;;18.90;45.20;;;;;;5076721;28;19927;-56
2023/12/31 13:47:41;;;;;;;;;;;18.90;45.20;;;;;;5076094;28;19977;-51
2023/12/31 13:50:08;;;;;;;;;;;18.90;45.20;;;;;;5102464;28;19923;-52
2023/12/31 13:52:34;;;;;;;;;;;18.90;45.20;;;;;;5093949;28;19965;-53
2023/12/31 13:55:01;;;;;;;;;;;18.90;45.20;;;;;;5058369;28;19932;-54
2023/12/31 13:57:31;;;;;;;;;;;18.90;45.20;;;;;;5076158;28;19970;-58
2023/12/31 13:59:58;;;;;;;;;;;18.90;45.20;;;;;;5091651;28;19923;-53
2023/12/31 14:02:25;;;;;;;;;;;18.90;45.20;;;;;;5077398;28;19981;-53
2023/12/31 14:04:52;;;;;;;;;;;18.90;45.30;;;;;;5099936;28;19959;-53
2023/12/31 14:07:19;;;;;;;;;;;18.90;45.20;;;;;;5094870;28;19926;-54
2023/12/31 14:09:46;;;;;;;;;;;18.90;45.20;;;;;;5093519;28;19932;-57
2023/12/31 14:12:14;;;;;;;;;;;18.90;45.20;;;;;;5074187;28;19920;-56
2023/12/31 14:14:43;;;;;;;;;;;18.90;45.20;;;;;;5093814;28;20365;-55
2023/12/31 14:17:09;;;;;;;;;;;18.90;45.20;;;;;;5082810;28;19948;-52